createdAt,value
2022-12-03T00:00:12.124Z,6.82
2022-12-03T00:02:40.551Z,5.90
2022-12-03T00:05:08.969Z,6.88
2022-12-03T00:07:36.376Z,6.37
2022-12-03T00:10:07.526Z,7.88
2022-12-03T00:12:34.957Z,7.63
2022-12-03T00:15:02.498Z,7.20
2022-12-03T00:17:30.016Z,7.38
2022-12-03T00:19:57.488Z,7.27
2022-12-03T00:22:25.203Z,7.05
2022-12-03T00:24:52.743Z,7.40
2022-12-03T00:27:20.711Z,7.57
2022-12-03T00:29:48.171Z,7.38
2022-12-03T00:32:15.695Z,7.53
2022-12-03T00:34:43.125Z,8.35
2022-12-03T00:37:10.703Z,8.30
2022-12-03T00:39:38.215Z,7.57
2022-12-03T00:42:06.030Z,7.97
2022-12-03T00:44:33.582Z,8.83
2022-12-03T00:47:01.046Z,7.57
2022-12-03T00:49:28.442Z,8.70
2022-12-03T00:51:55.910Z,7.88
2022-12-03T00:54:29.968Z,9.55
2022-12-03T00:56:59.929Z,7.93
2022-12-03T00:59:27.412Z,9.48
2022-12-03T01:01:54.975Z,9.25
2022-12-03T01:04:22.561Z,8.50
2022-12-03T01:06:50.183Z,9.43
2022-12-03T01:09:17.812Z,8.20
2022-12-03T01:11:45.317Z,8.73
2022-12-03T01:14:15.195Z,8.25
2022-12-03T01:16:43.380Z,8.80
2022-12-03T01:19:16.162Z,8.65
2022-12-03T01:21:45.691Z,8.40
2022-12-03T01:24:13.429Z,8.25
2022-12-03T01:26:41.117Z,8.75
2022-12-03T01:29:08.543Z,7.72
2022-12-03T01:31:54.599Z,9.13
2022-12-03T01:34:22.294Z,7.87
2022-12-03T01:36:49.769Z,9.10
2022-12-03T01:39:17.167Z,11.50
2022-12-03T01:41:45.073Z,10.63
2022-12-03T01:44:19.865Z,9.57
2022-12-03T01:46:47.924Z,8.70
2022-12-03T01:49:25.309Z,9.38
2022-12-03T01:51:54.096Z,9.43
2022-12-03T01:54:28.430Z,9.18
2022-12-03T01:56:56.599Z,8.85
2022-12-03T01:59:34.349Z,7.57
2022-12-03T02:02:21.352Z,8.38
2022-12-03T02:04:49.670Z,9.48
2022-12-03T02:07:24.229Z,9.52
2022-12-03T02:09:52.814Z,9.07
2022-12-03T02:12:24.613Z,8.93
2022-12-03T02:14:52.731Z,8.00
2022-12-03T02:17:20.863Z,8.38
2022-12-03T02:19:49.398Z,7.07
2022-12-03T02:22:34.870Z,8.02
2022-12-03T02:25:40.842Z,8.30
2022-12-03T02:28:10.082Z,8.02
2022-12-03T02:30:37.558Z,7.22
2022-12-03T02:33:05.438Z,7.82
2022-12-03T02:35:35.213Z,8.13
2022-12-03T02:38:14.555Z,8.77
2022-12-03T02:40:43.148Z,8.10
2022-12-03T02:43:11.757Z,8.32
2022-12-03T02:45:41.655Z,8.10
2022-12-03T02:48:13.020Z,7.88
2022-12-03T02:50:43.627Z,8.80
2022-12-03T02:53:17.670Z,8.48
2022-12-03T02:55:45.699Z,8.07
2022-12-03T02:58:13.779Z,7.72
2022-12-03T03:00:41.762Z,7.65
2022-12-03T03:03:10.692Z,7.43
2022-12-03T03:05:41.769Z,7.80
2022-12-03T03:08:10.751Z,8.30
2022-12-03T03:10:40.773Z,8.43
2022-12-03T03:13:12.161Z,9.27
2022-12-03T03:15:40.895Z,8.70
2022-12-03T03:18:09.726Z,9.65
2022-12-03T03:20:37.836Z,8.90
2022-12-03T03:23:20.005Z,7.63
2022-12-03T03:26:08.948Z,6.85
2022-12-03T03:28:40.094Z,6.70
2022-12-03T03:31:09.713Z,7.53
2022-12-03T03:33:39.253Z,7.28
2022-12-03T03:36:07.991Z,8.32
2022-12-03T03:38:36.668Z,7.35
2022-12-03T03:41:06.362Z,7.40
2022-12-03T03:43:35.214Z,8.80
2022-12-03T03:46:05.135Z,8.13
2022-12-03T03:48:35.102Z,7.93
2022-12-03T03:51:09.124Z,8.77
2022-12-03T03:53:41.924Z,9.07
2022-12-03T03:56:10.029Z,8.27
2022-12-03T03:58:38.661Z,8.05
2022-12-03T04:01:06.290Z,6.88
2022-12-03T04:03:35.149Z,7.63
2022-12-03T04:06:02.737Z,6.80
2022-12-03T04:08:30.623Z,8.13
2022-12-03T04:11:16.415Z,7.93
2022-12-03T04:13:43.935Z,7.65
2022-12-03T04:16:11.311Z,7.53
2022-12-03T04:18:44.680Z,8.77
2022-12-03T04:21:39.683Z,7.57
2022-12-03T04:24:08.829Z,7.70
2022-12-03T04:27:09.624Z,7.25
2022-12-03T04:29:37.041Z,8.32
2022-12-03T04:32:22.964Z,8.07
2022-12-03T04:35:08.816Z,7.43
2022-12-03T04:37:36.085Z,7.53
2022-12-03T04:40:23.810Z,7.47
2022-12-03T04:42:51.085Z,7.60
2022-12-03T04:45:18.317Z,7.73
2022-12-03T04:47:45.604Z,6.45
2022-12-03T04:50:12.923Z,6.45
2022-12-03T04:52:40.164Z,7.10
2022-12-03T04:55:07.804Z,7.30
2022-12-03T04:57:35.243Z,7.07
2022-12-03T05:00:04.142Z,7.85
2022-12-03T05:02:31.475Z,7.05
2022-12-03T05:04:58.897Z,6.97
2022-12-03T05:07:26.380Z,7.70
2022-12-03T05:09:53.690Z,7.37
2022-12-03T05:12:21.057Z,6.63
2022-12-03T05:14:48.415Z,7.43
2022-12-03T05:17:15.688Z,6.47
2022-12-03T05:20:01.249Z,6.43
2022-12-03T05:22:28.577Z,7.87
2022-12-03T05:24:56.255Z,6.68
2022-12-03T05:27:24.504Z,6.55
2022-12-03T05:29:52.259Z,5.63
2022-12-03T05:32:20.458Z,6.82
2022-12-03T05:34:47.907Z,6.33
2022-12-03T05:37:15.269Z,7.10
2022-12-03T05:39:42.574Z,6.10
2022-12-03T05:42:29.054Z,5.88
2022-12-03T05:44:56.513Z,5.47
2022-12-03T05:47:24.059Z,6.17
2022-12-03T05:49:51.377Z,6.25
2022-12-03T05:52:18.539Z,5.85
2022-12-03T05:54:45.778Z,5.55
2022-12-03T05:57:13.019Z,6.63
2022-12-03T05:59:40.259Z,5.53
2022-12-03T06:02:07.596Z,5.95
2022-12-03T06:04:34.868Z,6.03
2022-12-03T06:07:02.148Z,4.97
2022-12-03T06:09:29.578Z,6.30
2022-12-03T06:11:56.814Z,5.90
2022-12-03T06:14:24.086Z,6.35
2022-12-03T06:16:51.535Z,5.97
2022-12-03T06:19:18.917Z,5.53
2022-12-03T06:21:46.791Z,6.53
2022-12-03T06:24:14.160Z,6.53
2022-12-03T06:26:41.419Z,6.25
2022-12-03T06:29:08.854Z,6.65
2022-12-03T06:31:37.140Z,6.35
2022-12-03T06:34:04.384Z,5.93
2022-12-03T06:36:31.729Z,6.53
2022-12-03T06:38:59.035Z,5.72
2022-12-03T06:41:26.414Z,6.95
2022-12-03T06:43:53.655Z,6.57
2022-12-03T06:46:20.876Z,6.85
2022-12-03T06:48:48.456Z,6.77
2022-12-03T06:51:15.755Z,6.63
2022-12-03T06:53:43.254Z,6.30
2022-12-03T06:56:10.635Z,7.45
2022-12-03T06:58:38.062Z,6.82
2022-12-03T07:01:06.425Z,6.87
2022-12-03T07:03:34.049Z,7.30
2022-12-03T07:06:01.819Z,7.32
2022-12-03T07:08:29.240Z,7.35
2022-12-03T07:10:57.056Z,7.38
2022-12-03T07:13:24.456Z,7.40
2022-12-03T07:15:51.872Z,7.93
2022-12-03T07:18:19.349Z,7.15
2022-12-03T07:20:46.739Z,7.20
2022-12-03T07:23:14.263Z,7.78
2022-12-03T07:25:41.675Z,7.33
2022-12-03T07:28:09.110Z,7.43
2022-12-03T07:30:36.473Z,7.20
2022-12-03T07:33:03.920Z,6.43
2022-12-03T07:35:31.247Z,7.18
2022-12-03T07:37:58.707Z,7.97
2022-12-03T07:40:26.171Z,7.05
2022-12-03T07:42:53.651Z,6.63
2022-12-03T07:45:21.188Z,7.32
2022-12-03T07:47:48.574Z,7.35
2022-12-03T07:50:15.977Z,6.93
2022-12-03T07:52:43.545Z,7.07
2022-12-03T07:55:12.132Z,7.60
2022-12-03T07:57:39.908Z,7.45
2022-12-03T08:00:08.301Z,7.20
2022-12-03T08:02:35.882Z,7.30
2022-12-03T08:05:03.814Z,7.15
2022-12-03T08:07:31.477Z,7.20
2022-12-03T08:09:59.739Z,8.40
2022-12-03T08:12:47.427Z,8.23
2022-12-03T08:15:18.656Z,9.47
2022-12-03T08:17:52.191Z,8.85
2022-12-03T08:20:25.227Z,7.38
2022-12-03T08:22:54.016Z,8.40
2022-12-03T08:25:25.413Z,6.50
2022-12-03T08:27:57.104Z,7.50
2022-12-03T08:30:24.686Z,7.57
2022-12-03T08:32:52.256Z,8.35
2022-12-03T08:35:26.180Z,6.68
2022-12-03T08:38:10.694Z,7.35
2022-12-03T08:40:41.769Z,7.70
2022-12-03T08:43:25.088Z,7.68
2022-12-03T08:45:58.016Z,7.57
2022-12-03T08:48:33.775Z,7.57
2022-12-03T08:51:24.213Z,8.60
2022-12-03T08:54:01.053Z,9.80
2022-12-03T08:56:31.144Z,11.60
2022-12-03T08:59:03.975Z,8.60
2022-12-03T09:01:37.887Z,8.38
2022-12-03T09:04:39.501Z,7.65
2022-12-03T09:07:07.019Z,8.40
2022-12-03T09:09:35.294Z,9.20
2022-12-03T09:12:03.466Z,8.40
2022-12-03T09:14:30.945Z,8.50
2022-12-03T09:16:58.531Z,8.68
2022-12-03T09:19:27.859Z,8.60
2022-12-03T09:21:55.329Z,8.80
2022-12-03T09:24:23.108Z,8.75
2022-12-03T09:26:51.155Z,8.23
2022-12-03T09:29:18.647Z,8.60
2022-12-03T09:31:46.254Z,8.90
2022-12-03T09:34:13.768Z,7.60
2022-12-03T09:36:41.417Z,8.73
2022-12-03T09:39:08.854Z,8.93
2022-12-03T09:41:36.530Z,9.93
2022-12-03T09:44:05.543Z,8.13
2022-12-03T09:46:36.395Z,8.43
2022-12-03T09:49:07.500Z,9.55
2022-12-03T09:51:39.535Z,7.95
2022-12-03T09:54:08.335Z,7.57
2022-12-03T09:56:38.332Z,8.27
2022-12-03T09:59:16.051Z,8.10
2022-12-03T10:01:44.524Z,8.32
2022-12-03T10:04:12.535Z,8.32
2022-12-03T10:06:45.516Z,8.20
2022-12-03T10:09:17.686Z,8.50
2022-12-03T10:11:45.147Z,7.68
2022-12-03T10:14:15.021Z,8.75
2022-12-03T10:16:42.643Z,7.93
2022-12-03T10:19:24.137Z,8.48
2022-12-03T10:21:51.670Z,7.90
2022-12-03T10:24:28.952Z,8.70
2022-12-03T10:27:04.664Z,8.48
2022-12-03T10:29:36.649Z,8.50
2022-12-03T10:32:10.342Z,10.85
2022-12-03T10:34:41.069Z,12.87
2022-12-03T10:37:20.582Z,11.95
2022-12-03T10:40:09.572Z,14.02
2022-12-03T10:42:40.396Z,10.90
2022-12-03T10:45:23.336Z,11.13
2022-12-03T10:48:13.566Z,8.73
2022-12-03T10:51:12.333Z,8.43
2022-12-03T10:53:41.847Z,7.85
2022-12-03T10:56:25.147Z,8.15
2022-12-03T10:58:53.212Z,7.25
2022-12-03T11:01:23.396Z,8.30
2022-12-03T11:03:52.205Z,8.00
2022-12-03T11:06:22.595Z,8.13
2022-12-03T11:08:59.461Z,9.25
2022-12-03T11:11:31.583Z,7.40
2022-12-03T11:14:00.817Z,9.23
2022-12-03T11:16:40.331Z,9.40
2022-12-03T11:19:13.818Z,8.38
2022-12-03T11:22:06.058Z,7.65
2022-12-03T11:24:35.505Z,7.80
2022-12-03T11:27:03.178Z,7.53
2022-12-03T11:29:51.768Z,7.75
2022-12-03T11:32:43.684Z,7.88
2022-12-03T11:35:16.244Z,7.22
2022-12-03T11:37:43.730Z,8.10
2022-12-03T11:40:17.099Z,7.90
2022-12-03T11:42:45.684Z,8.38
2022-12-03T11:45:38.598Z,9.05
2022-12-03T11:48:13.088Z,8.07
2022-12-03T11:50:44.229Z,8.93
2022-12-03T11:53:11.619Z,10.23
2022-12-03T11:55:47.163Z,9.27
2022-12-03T11:58:17.563Z,8.60
2022-12-03T12:00:57.299Z,9.13
2022-12-03T12:03:28.739Z,9.80
2022-12-03T12:06:15.563Z,8.33
2022-12-03T12:08:57.204Z,9.27
2022-12-03T12:11:33.732Z,9.32
2022-12-03T12:14:06.215Z,8.43
2022-12-03T12:16:44.507Z,10.95
2022-12-03T12:19:32.009Z,10.53
2022-12-03T12:22:30.409Z,10.05
2022-12-03T12:25:20.731Z,10.40
2022-12-03T12:27:51.310Z,9.52
2022-12-03T12:30:21.892Z,8.52
2022-12-03T12:32:51.787Z,9.63
2022-12-03T12:35:27.323Z,8.07
2022-12-03T12:37:59.969Z,8.23
2022-12-03T12:40:30.732Z,11.20
2022-12-03T12:43:05.326Z,9.32
2022-12-03T12:45:41.672Z,10.77
2022-12-03T12:48:23.820Z,11.20
2022-12-03T12:51:19.156Z,9.30
2022-12-03T12:53:47.148Z,8.18
2022-12-03T12:56:25.717Z,11.35
2022-12-03T12:58:54.209Z,9.73
2022-12-03T13:01:27.755Z,8.90
2022-12-03T13:03:55.858Z,9.77
2022-12-03T13:06:28.382Z,9.70
2022-12-03T13:08:56.297Z,8.38
2022-12-03T13:11:41.800Z,8.50
2022-12-03T13:14:24.185Z,8.32
2022-12-03T13:16:55.045Z,7.53
2022-12-03T13:19:25.368Z,8.50
2022-12-03T13:22:15.311Z,9.25
2022-12-03T13:24:48.467Z,8.67
2022-12-03T13:27:18.762Z,9.45
2022-12-03T13:29:54.947Z,12.68
2022-12-03T13:32:31.415Z,9.40
2022-12-03T13:35:24.778Z,8.55
2022-12-03T13:37:52.255Z,7.80
2022-12-03T13:40:31.691Z,7.75
2022-12-03T13:42:59.807Z,8.60
2022-12-03T13:45:35.371Z,8.00
2022-12-03T13:48:20.600Z,8.30
2022-12-03T13:50:48.152Z,7.13
2022-12-03T13:53:26.457Z,8.20
2022-12-03T13:56:12.385Z,11.63
2022-12-03T13:58:39.897Z,9.68
2022-12-03T14:01:07.579Z,10.40
2022-12-03T14:03:35.501Z,9.57
2022-12-03T14:06:02.884Z,9.57
2022-12-03T14:08:30.352Z,12.70
2022-12-03T14:11:00.316Z,14.95
2022-12-03T14:13:28.233Z,14.80
2022-12-03T14:15:55.890Z,12.63
2022-12-03T14:18:23.390Z,12.70
2022-12-03T14:20:50.844Z,10.57
2022-12-03T14:23:18.230Z,9.80
2022-12-03T14:25:49.214Z,10.38
2022-12-03T14:28:17.842Z,10.30
2022-12-03T14:30:45.430Z,11.85
2022-12-03T14:33:13.709Z,12.15
2022-12-03T14:35:42.723Z,12.77
2022-12-03T14:38:10.039Z,9.18
2022-12-03T14:40:38.074Z,9.70
2022-12-03T14:43:05.992Z,10.18
2022-12-03T14:45:33.374Z,10.20
2022-12-03T14:48:00.830Z,11.25
2022-12-03T14:50:28.400Z,9.68
2022-12-03T14:52:55.962Z,11.30
2022-12-03T14:55:24.034Z,9.30
2022-12-03T14:57:51.474Z,9.95
2022-12-03T15:00:19.479Z,9.93
2022-12-03T15:02:47.482Z,11.75
2022-12-03T15:05:22.214Z,11.60
2022-12-03T15:07:55.047Z,9.90
2022-12-03T15:10:27.971Z,8.93
2022-12-03T15:12:56.690Z,11.32
2022-12-03T15:15:27.376Z,9.65
2022-12-03T15:17:55.310Z,10.67
2022-12-03T15:20:25.229Z,9.32
2022-12-03T15:22:55.019Z,9.40
2022-12-03T15:25:25.671Z,10.30
2022-12-03T15:27:57.285Z,8.82
2022-12-03T15:30:26.126Z,10.83
2022-12-03T15:32:57.775Z,8.27
2022-12-03T15:35:25.270Z,11.00
2022-12-03T15:37:53.142Z,10.20
2022-12-03T15:40:22.089Z,10.05
2022-12-03T15:42:51.384Z,10.47
2022-12-03T15:45:19.215Z,10.05
2022-12-03T15:47:51.551Z,12.57
2022-12-03T15:50:20.288Z,12.70
2022-12-03T15:52:50.068Z,11.05
2022-12-03T15:55:18.549Z,12.03
2022-12-03T15:57:47.063Z,10.60
2022-12-03T16:00:15.643Z,10.57
2022-12-03T16:02:49.109Z,12.50
2022-12-03T16:05:20.094Z,14.07
2022-12-03T16:07:47.503Z,10.87
2022-12-03T16:10:18.624Z,11.13
2022-12-03T16:12:46.099Z,11.02
2022-12-03T16:15:13.422Z,10.50
2022-12-03T16:17:41.640Z,11.02
2022-12-03T16:20:11.559Z,11.80
2022-12-03T16:22:39.400Z,11.60
2022-12-03T16:25:07.527Z,11.35
2022-12-03T16:27:37.832Z,10.13
2022-12-03T16:30:10.992Z,10.02
2022-12-03T16:32:40.433Z,9.87
2022-12-03T16:35:08.448Z,8.90
2022-12-03T16:37:36.747Z,11.40
2022-12-03T16:40:06.613Z,9.65
2022-12-03T16:42:34.862Z,8.95
2022-12-03T16:45:05.445Z,10.17
2022-12-03T16:47:39.355Z,10.25
2022-12-03T16:50:18.720Z,10.13
2022-12-03T16:52:50.226Z,10.27
2022-12-03T16:55:17.802Z,10.65
2022-12-03T16:57:48.234Z,9.53
2022-12-03T17:00:18.942Z,8.52
2022-12-03T17:02:48.573Z,10.00
2022-12-03T17:05:17.040Z,9.52
2022-12-03T17:07:47.846Z,11.10
2022-12-03T17:10:19.525Z,9.67
2022-12-03T17:13:08.952Z,9.85
2022-12-03T17:15:35.099Z,10.13
2022-12-03T17:18:06.030Z,9.73
2022-12-03T17:20:34.880Z,10.85
2022-12-03T17:23:02.564Z,11.17
2022-12-03T17:25:31.088Z,10.87
2022-12-03T17:27:58.365Z,10.48
2022-12-03T17:30:26.253Z,10.77
2022-12-03T17:32:53.766Z,12.40
2022-12-03T17:35:21.503Z,12.50
2022-12-03T17:37:50.040Z,12.25
2022-12-03T17:40:18.005Z,13.90
2022-12-03T17:42:49.941Z,12.63
2022-12-03T17:45:18.199Z,10.40
2022-12-03T17:47:45.888Z,11.40
2022-12-03T17:50:13.846Z,12.02
2022-12-03T17:52:42.122Z,11.82
2022-12-03T17:55:12.755Z,11.27
2022-12-03T17:57:45.387Z,11.43
2022-12-03T18:00:15.817Z,14.87
2022-12-03T18:02:43.787Z,17.20
2022-12-03T18:05:11.431Z,15.93
2022-12-03T18:07:39.094Z,17.00
2022-12-03T18:10:08.053Z,15.77
2022-12-03T18:12:35.379Z,15.00
2022-12-03T18:15:03.614Z,17.07
2022-12-03T18:17:31.023Z,16.42
2022-12-03T18:19:59.273Z,13.10
2022-12-03T18:22:28.242Z,14.02
2022-12-03T18:24:57.723Z,13.35
2022-12-03T18:27:25.345Z,13.10
2022-12-03T18:29:53.358Z,15.85
2022-12-03T18:32:29.907Z,15.05
2022-12-03T18:34:58.712Z,18.85
2022-12-03T18:37:28.769Z,14.85
2022-12-03T18:39:57.918Z,13.83
2022-12-03T18:42:25.860Z,13.98
2022-12-03T18:44:57.010Z,14.13
2022-12-03T18:47:28.356Z,14.48
2022-12-03T18:50:01.159Z,16.00
2022-12-03T18:52:28.948Z,17.03
2022-12-03T18:55:00.566Z,21.73
2022-12-03T18:57:30.648Z,18.92
2022-12-03T19:00:00.158Z,16.42
2022-12-03T19:05:17.036Z,16.97
2022-12-03T19:07:44.809Z,15.82
2022-12-03T19:10:14.845Z,15.00
2022-12-03T19:12:44.470Z,16.55
2022-12-03T19:15:14.552Z,15.13
2022-12-03T19:17:43.842Z,14.67
2022-12-03T19:20:13.380Z,13.95
2022-12-03T19:22:41.615Z,14.93
2022-12-03T19:25:10.623Z,14.27
2022-12-03T19:27:38.981Z,15.20
2022-12-03T19:30:09.205Z,12.03
2022-12-03T19:32:39.199Z,13.95
2022-12-03T19:35:12.022Z,15.82
2022-12-03T19:37:42.069Z,14.43
2022-12-03T19:40:11.957Z,14.10
2022-12-03T19:42:42.611Z,17.27
2022-12-03T19:45:11.670Z,13.57
2022-12-03T19:47:40.297Z,15.07
2022-12-03T19:50:11.005Z,13.70
2022-12-03T19:52:41.135Z,14.13
2022-12-03T19:55:11.169Z,13.00
2022-12-03T19:57:40.189Z,14.63
2022-12-03T20:00:11.803Z,17.77
2022-12-03T20:02:41.506Z,13.20
2022-12-03T20:05:09.418Z,14.35
2022-12-03T20:07:37.374Z,13.73
2022-12-03T20:10:05.939Z,14.30
2022-12-03T20:12:34.772Z,15.30
2022-12-03T20:15:06.110Z,17.15
2022-12-03T20:17:35.258Z,21.77
2022-12-03T20:20:04.654Z,18.43
2022-12-03T20:22:35.897Z,14.98
2022-12-03T20:25:05.719Z,14.98
2022-12-03T20:27:36.181Z,14.85
2022-12-03T20:30:05.823Z,15.55
2022-12-03T20:32:38.399Z,13.20
2022-12-03T20:35:10.888Z,11.38
2022-12-03T20:37:42.869Z,12.55
2022-12-03T20:40:13.396Z,12.48
2022-12-03T20:42:41.184Z,12.63
2022-12-03T20:45:11.092Z,12.13
2022-12-03T20:47:41.302Z,13.35
2022-12-03T20:50:09.618Z,13.40
2022-12-03T20:52:52.908Z,13.30
2022-12-03T20:55:28.883Z,13.40
2022-12-03T20:57:57.656Z,13.27
2022-12-03T21:00:25.181Z,11.68
2022-12-03T21:02:52.752Z,11.55
2022-12-03T21:05:20.711Z,10.93
2022-12-03T21:07:49.355Z,12.68
2022-12-03T21:10:46.274Z,12.37
2022-12-03T21:13:19.343Z,12.18
2022-12-03T21:15:47.370Z,12.82
2022-12-03T21:18:17.723Z,12.10
2022-12-03T21:20:47.878Z,12.27
2022-12-03T21:23:15.489Z,12.53
2022-12-03T21:25:42.783Z,12.18
2022-12-03T21:28:10.297Z,12.63
2022-12-03T21:30:39.710Z,12.73
2022-12-03T21:33:07.434Z,13.15
2022-12-03T21:35:38.992Z,11.60
2022-12-03T21:38:06.312Z,13.80
2022-12-03T21:40:33.818Z,13.73
2022-12-03T21:43:01.117Z,12.27
2022-12-03T21:45:28.484Z,12.15
2022-12-03T21:47:55.862Z,12.70
2022-12-03T21:50:23.237Z,14.20
2022-12-03T21:52:51.643Z,12.73
2022-12-03T21:55:18.937Z,11.93
2022-12-03T21:57:46.298Z,12.40
2022-12-03T22:00:14.635Z,11.23
2022-12-03T22:02:42.199Z,11.57
2022-12-03T22:05:11.493Z,12.65
2022-12-03T22:07:40.257Z,12.57
2022-12-03T22:10:10.323Z,11.13
2022-12-03T22:12:38.022Z,11.43
2022-12-03T22:15:06.106Z,11.07
2022-12-03T22:17:36.276Z,11.82
2022-12-03T22:20:05.645Z,11.75
2022-12-03T22:22:32.941Z,11.68
2022-12-03T22:25:00.195Z,11.53
2022-12-03T22:27:27.624Z,12.52
2022-12-03T22:29:55.303Z,12.23
2022-12-03T22:32:24.181Z,11.15
2022-12-03T22:34:51.561Z,12.68
2022-12-03T22:37:19.076Z,10.13
2022-12-03T22:39:46.607Z,11.27
2022-12-03T22:42:14.222Z,10.85
2022-12-03T22:44:41.667Z,11.07
2022-12-03T22:47:09.567Z,10.65
2022-12-03T22:49:36.860Z,11.70
2022-12-03T22:52:04.377Z,10.57
2022-12-03T22:54:31.779Z,11.75
2022-12-03T22:56:59.215Z,10.88
2022-12-03T22:59:26.795Z,11.48
2022-12-03T23:01:54.285Z,10.63
2022-12-03T23:04:21.738Z,10.68
2022-12-03T23:06:49.280Z,10.23
2022-12-03T23:09:16.812Z,10.20
2022-12-03T23:11:45.753Z,10.70
2022-12-03T23:14:13.458Z,10.57
2022-12-03T23:16:41.706Z,9.88
2022-12-03T23:19:09.121Z,9.73
2022-12-03T23:21:36.873Z,10.65
2022-12-03T23:24:06.341Z,10.45
2022-12-03T23:26:38.019Z,10.53
2022-12-03T23:29:06.716Z,9.32
2022-12-03T23:31:34.867Z,9.63
2022-12-03T23:34:03.232Z,10.02
2022-12-03T23:36:33.222Z,9.32
2022-12-03T23:39:00.828Z,9.87
2022-12-03T23:41:28.697Z,9.63
2022-12-03T23:43:57.096Z,9.50
2022-12-03T23:46:26.168Z,9.73
2022-12-03T23:48:54.030Z,9.57
2022-12-03T23:51:24.750Z,9.27
2022-12-03T23:53:54.516Z,9.05
2022-12-03T23:56:27.131Z,9.68
2022-12-03T23:58:54.698Z,9.60
